Terminal Aerodrome Forecast
Issued by NWS Blacksburg, VA

Current Version | Previous Version | Graphics & Text | Print | Product List | Glossary On
Versions: 1 2 3 4 5 6 7 8 9 10 11 12 13 14 15 16 17 18 19 20 21 22 23 24 25 26 27 28 29 30 31 32 33 34 35 36 37 38 39 40
944
FTUS41 KRNK 192341
TAFBLF
TAF
KBLF 192341Z 2000/2024 12004KT P6SM BKN150 OVC250
     FM200600 13006KT P6SM -RA OVC060
     FM200800 14008G16KT 3SM -RA BR BKN007 OVC015
      TEMPO 2010/2014 1SM RA BR BKN004 OVC012
     FM201600 22008G16KT 4SM -DZ BR SCT007 OVC015=

USA.gov is the U.S. government's official web portal to all federal, state and local government web resources and services.